Lawrence, Massachusetts
Current Conditions -  °F | °C
As of 7:54 PM on Sunday 23 Nov 2014 (Local Time) from KLWM Reporting Station
Overcast Overcast  
Wind Chill: 54°   Ceiling: 9500
Heat Index: 54°   Visibility: 10mi
Dew Point: 37°   Wind: 3mph
Humidity: 53%   Direction: 140°SE
Pressure: 30.13"   Gusts: NA
Location:  42.71°N, 71.16°W
Report Text: KLWM 240054Z 14003KT 10SM OVC095 12/03 A3013 RMK AO2 SLP204 T01220028
Loading
Personal Weather Stations






























Interactive Weather Map New forecast layout! Learn more

10-Day Weather Forecast

Advertisements
Track Severe Weather on mobile